createdAt,value
2019-01-17T00:00:33.970Z,23.40
2019-01-17T00:06:14.709Z,21.73
2019-01-17T00:09:20.852Z,19.20
2019-01-17T00:12:10.678Z,20.87
2019-01-17T00:15:07.918Z,18.97
2019-01-17T00:17:54.282Z,21.40
2019-01-17T00:20:51.373Z,19.23
2019-01-17T00:23:39.248Z,19.80
2019-01-17T00:26:30.074Z,19.97
2019-01-17T00:29:17.946Z,19.00
2019-01-17T00:32:11.695Z,22.00
2019-01-17T00:34:51.573Z,22.13
2019-01-17T00:37:34.865Z,19.87
2019-01-17T00:40:21.735Z,24.50
2019-01-17T00:43:12.217Z,19.73
2019-01-17T00:45:58.911Z,20.80
2019-01-17T00:48:44.123Z,20.30
2019-01-17T00:51:28.748Z,20.37
2019-01-17T00:54:10.054Z,21.73
2019-01-17T00:57:02.683Z,21.13
2019-01-17T00:59:49.279Z,19.97
2019-01-17T01:02:30.160Z,23.53
2019-01-17T01:05:10.570Z,23.83
2019-01-17T01:07:57.131Z,22.00
2019-01-17T01:10:47.413Z,20.40
2019-01-17T01:13:33.752Z,21.57
2019-01-17T01:16:38.061Z,19.43
2019-01-17T01:19:30.546Z,19.20
2019-01-17T01:22:30.593Z,17.93
2019-01-17T01:25:17.224Z,18.73
2019-01-17T01:28:01.137Z,17.60
2019-01-17T01:30:49.017Z,16.00
2019-01-17T01:33:35.541Z,18.00
2019-01-17T01:36:23.470Z,16.63
2019-01-17T01:39:26.302Z,17.40
2019-01-17T01:42:23.090Z,16.63
2019-01-17T01:45:16.513Z,17.00
2019-01-17T01:48:08.186Z,14.23
2019-01-17T01:50:49.560Z,14.63
2019-01-17T01:53:18.495Z,17.47
2019-01-17T01:55:47.339Z,13.80
2019-01-17T01:58:16.163Z,16.07
2019-01-17T02:00:45.057Z,14.17
2019-01-17T02:03:13.925Z,15.20
2019-01-17T02:05:42.845Z,13.90
2019-01-17T02:08:11.827Z,13.60
2019-01-17T02:10:40.704Z,13.93
2019-01-17T02:13:09.540Z,12.63
2019-01-17T02:15:38.426Z,13.53
2019-01-17T02:18:07.359Z,12.90
2019-01-17T02:20:36.280Z,12.07
2019-01-17T02:23:05.214Z,11.73
2019-01-17T02:25:34.221Z,11.60
2019-01-17T02:28:02.995Z,10.33
2019-01-17T02:30:31.837Z,10.70
2019-01-17T02:33:00.730Z,10.40
2019-01-17T02:35:29.594Z,12.37
2019-01-17T02:37:58.485Z,10.07
2019-01-17T02:40:27.356Z,9.97
2019-01-17T02:42:56.247Z,9.33
2019-01-17T02:45:25.074Z,8.40
2019-01-17T02:47:53.953Z,7.53
2019-01-17T02:50:22.825Z,6.50
2019-01-17T02:52:51.669Z,8.13
2019-01-17T02:55:20.596Z,5.60
2019-01-17T02:57:49.445Z,7.87
2019-01-17T03:00:18.466Z,4.53
2019-01-17T03:02:47.423Z,4.93
2019-01-17T03:05:16.353Z,6.07
2019-01-17T03:07:45.192Z,5.43
2019-01-17T03:10:16.268Z,6.10
2019-01-17T03:12:45.187Z,5.77
2019-01-17T03:15:14.155Z,5.67
2019-01-17T03:17:43.007Z,6.47
2019-01-17T03:20:12.967Z,5.50
2019-01-17T03:22:41.814Z,5.73
2019-01-17T03:25:10.892Z,4.20
2019-01-17T03:27:40.211Z,4.83
2019-01-17T03:30:14.720Z,4.33
2019-01-17T03:32:43.553Z,4.27
2019-01-17T03:35:12.658Z,3.20
2019-01-17T03:37:41.600Z,2.83
2019-01-17T03:40:13.127Z,3.03
2019-01-17T03:42:42.068Z,3.53
2019-01-17T03:45:11.252Z,3.03
2019-01-17T03:47:43.002Z,3.27
2019-01-17T03:50:13.418Z,2.60
2019-01-17T03:52:42.451Z,3.30
2019-01-17T03:55:13.161Z,6.33
2019-01-17T03:57:42.086Z,2.00
2019-01-17T04:00:14.093Z,3.63
2019-01-17T04:02:43.024Z,3.37
2019-01-17T04:05:11.949Z,3.43
2019-01-17T04:07:40.887Z,5.57
2019-01-17T04:10:11.227Z,2.07
2019-01-17T04:12:40.078Z,2.87
2019-01-17T04:15:09.551Z,3.03
2019-01-17T04:17:38.397Z,2.27
2019-01-17T04:20:10.020Z,3.67
2019-01-17T04:22:38.953Z,5.73
2019-01-17T04:25:08.347Z,3.67
2019-01-17T04:27:37.258Z,2.70
2019-01-17T04:30:08.753Z,3.83
2019-01-17T04:32:37.637Z,4.73
2019-01-17T04:35:06.564Z,5.53
2019-01-17T04:37:35.398Z,3.67
2019-01-17T04:40:05.077Z,3.47
2019-01-17T04:42:35.491Z,3.67
2019-01-17T04:45:04.508Z,2.53
2019-01-17T04:47:33.357Z,5.57
2019-01-17T04:50:02.205Z,5.60
2019-01-17T04:52:31.042Z,4.57
2019-01-17T04:55:05.031Z,3.87
2019-01-17T04:57:30.529Z,3.30
2019-01-17T04:59:59.419Z,6.07
2019-01-17T05:02:28.234Z,5.17
2019-01-17T05:04:57.832Z,8.93
2019-01-17T05:07:26.787Z,4.90
2019-01-17T05:09:55.637Z,8.90
2019-01-17T05:12:24.412Z,7.83
2019-01-17T05:14:53.373Z,6.40
2019-01-17T05:17:22.229Z,7.87
2019-01-17T05:19:51.015Z,6.60
2019-01-17T05:22:19.890Z,11.17
2019-01-17T05:24:48.758Z,9.30
2019-01-17T05:27:17.628Z,5.60
2019-01-17T05:29:46.486Z,10.30
2019-01-17T05:32:15.343Z,5.53
2019-01-17T05:34:44.318Z,10.90
2019-01-17T05:37:13.228Z,8.90
2019-01-17T05:39:42.034Z,8.77
2019-01-17T05:42:10.826Z,6.97
2019-01-17T05:44:39.771Z,8.20
2019-01-17T05:47:08.696Z,10.07
2019-01-17T05:49:37.500Z,9.23
2019-01-17T05:52:06.357Z,10.17
2019-01-17T05:54:35.243Z,11.60
2019-01-17T05:57:04.095Z,8.20
2019-01-17T05:59:33.028Z,10.27
2019-01-17T06:02:01.868Z,9.73
2019-01-17T06:04:30.736Z,6.70
2019-01-17T06:06:59.560Z,12.47
2019-01-17T06:09:28.363Z,8.50
2019-01-17T06:11:57.270Z,8.93
2019-01-17T06:14:26.183Z,6.63
2019-01-17T06:16:55.107Z,8.87
2019-01-17T06:19:24.030Z,9.37
2019-01-17T06:21:52.888Z,8.37
2019-01-17T06:24:21.804Z,9.17
2019-01-17T06:26:50.683Z,8.17
2019-01-17T06:29:19.498Z,9.03
2019-01-17T06:31:48.344Z,9.97
2019-01-17T06:34:17.282Z,11.50
2019-01-17T06:36:46.131Z,12.77
2019-01-17T06:39:14.972Z,9.73
2019-01-17T06:41:43.860Z,8.83
2019-01-17T06:44:12.833Z,8.67
2019-01-17T06:46:41.714Z,10.40
2019-01-17T06:49:10.581Z,13.40
2019-01-17T06:51:39.521Z,10.23
2019-01-17T06:54:08.372Z,8.50
2019-01-17T06:56:37.313Z,8.17
2019-01-17T06:59:06.229Z,11.00
2019-01-17T07:01:35.118Z,10.80
2019-01-17T07:04:03.955Z,10.63
2019-01-17T07:06:32.920Z,10.27
2019-01-17T07:09:01.792Z,9.20
2019-01-17T07:11:30.729Z,12.70
2019-01-17T07:13:59.486Z,8.37
2019-01-17T07:16:28.452Z,12.00
2019-01-17T07:18:57.349Z,10.50
2019-01-17T07:21:26.292Z,10.07
2019-01-17T07:23:55.063Z,10.63
2019-01-17T07:26:23.956Z,12.30
2019-01-17T07:28:52.786Z,13.10
2019-01-17T07:31:21.646Z,9.83
2019-01-17T07:33:50.546Z,10.70
2019-01-17T07:36:19.419Z,11.67
2019-01-17T07:38:48.505Z,9.77
2019-01-17T07:41:17.400Z,11.70
2019-01-17T07:43:46.259Z,10.50
2019-01-17T07:46:15.209Z,11.63
2019-01-17T07:48:44.036Z,10.47
2019-01-17T07:51:12.990Z,18.53
2019-01-17T07:53:41.884Z,6.37
2019-01-17T07:56:10.882Z,16.00
2019-01-17T07:59:48.224Z,9.73
2019-01-17T08:02:17.200Z,13.13
2019-01-17T08:04:46.096Z,13.50
2019-01-17T08:07:15.060Z,12.37
2019-01-17T08:09:43.833Z,15.93
2019-01-17T08:12:12.720Z,16.20
2019-01-17T08:14:41.608Z,11.27
2019-01-17T08:17:10.744Z,8.63
2019-01-17T08:19:39.689Z,10.50
2019-01-17T08:22:08.668Z,12.70
2019-01-17T08:24:37.593Z,10.03
2019-01-17T08:27:06.482Z,7.57
2019-01-17T08:29:35.404Z,13.70
2019-01-17T08:32:04.282Z,8.97
2019-01-17T08:34:33.227Z,9.80
2019-01-17T08:37:02.158Z,12.97
2019-01-17T08:39:31.100Z,10.23
2019-01-17T08:42:00.074Z,10.07
2019-01-17T08:47:45.431Z,15.17
2019-01-17T08:50:17.215Z,13.47
2019-01-17T08:52:46.186Z,11.80
2019-01-17T08:55:15.140Z,10.13
2019-01-17T08:57:44.050Z,14.30
2019-01-17T09:00:15.521Z,12.20
2019-01-17T09:02:44.426Z,11.40
2019-01-17T09:05:13.335Z,10.70
2019-01-17T09:07:42.279Z,11.70
2019-01-17T09:10:14.317Z,12.33
2019-01-17T09:12:43.200Z,12.90
2019-01-17T09:15:13.372Z,12.83
2019-01-17T09:17:42.345Z,13.23
2019-01-17T09:20:13.179Z,19.10
2019-01-17T09:22:42.084Z,16.50
2019-01-17T09:25:12.186Z,9.73
2019-01-17T09:27:55.975Z,12.20
2019-01-17T09:30:24.835Z,12.70
2019-01-17T09:33:14.504Z,11.30
2019-01-17T09:35:43.540Z,13.77
2019-01-17T09:38:12.470Z,12.77
2019-01-17T09:40:41.339Z,10.80
2019-01-17T09:43:10.181Z,9.40
2019-01-17T09:45:41.800Z,8.83
2019-01-17T09:48:10.668Z,11.17
2019-01-17T09:50:39.594Z,9.73
2019-01-17T09:53:08.488Z,12.30
2019-01-17T09:55:37.317Z,13.10
2019-01-17T09:58:06.199Z,11.20
2019-01-17T10:00:35.118Z,11.73
2019-01-17T10:03:04.049Z,9.53
2019-01-17T10:05:32.935Z,11.07
2019-01-17T10:08:01.927Z,11.23
2019-01-17T10:10:30.873Z,9.87
2019-01-17T10:12:59.655Z,8.47
2019-01-17T10:15:55.887Z,12.60
2019-01-17T10:19:01.743Z,13.20
2019-01-17T10:21:40.208Z,8.23
2019-01-17T10:25:05.567Z,8.70
2019-01-17T10:28:08.227Z,10.03
2019-01-17T10:31:33.047Z,8.73
2019-01-17T10:34:40.325Z,10.40
2019-01-17T10:37:52.332Z,13.00
2019-01-17T10:40:40.040Z,7.40
2019-01-17T10:43:35.504Z,10.10
2019-01-17T10:46:28.552Z,9.63
2019-01-17T10:49:19.764Z,13.87
2019-01-17T10:52:25.684Z,10.80
2019-01-17T10:55:19.827Z,11.50
2019-01-17T10:58:04.214Z,15.93
2019-01-17T11:01:25.447Z,10.07
2019-01-17T11:04:13.872Z,12.97
2019-01-17T11:06:59.290Z,7.53
2019-01-17T11:09:52.450Z,13.27
2019-01-17T11:12:59.733Z,10.47
2019-01-17T11:15:52.747Z,11.53
2019-01-17T11:19:10.667Z,9.57
2019-01-17T11:22:17.204Z,10.23
2019-01-17T11:25:22.327Z,11.07
2019-01-17T11:28:13.153Z,12.00
2019-01-17T11:31:17.077Z,10.13
2019-01-17T11:34:22.953Z,13.93
2019-01-17T11:37:30.642Z,9.07
2019-01-17T11:40:46.732Z,8.67
2019-01-17T11:43:51.139Z,10.83
2019-01-17T11:46:35.298Z,8.77
2019-01-17T11:49:28.908Z,9.13
2019-01-17T11:52:13.046Z,10.43
2019-01-17T11:54:59.403Z,14.97
2019-01-17T11:58:21.556Z,12.50
2019-01-17T12:01:09.093Z,14.90
2019-01-17T12:03:54.985Z,15.50
2019-01-17T12:06:24.156Z,13.83
2019-01-17T12:08:53.123Z,10.27
2019-01-17T12:11:22.029Z,10.10
2019-01-17T12:13:50.818Z,9.93
2019-01-17T12:16:19.724Z,10.53
2019-01-17T12:18:48.631Z,12.57
2019-01-17T12:21:17.470Z,8.70
2019-01-17T12:23:46.353Z,10.03
2019-01-17T12:26:15.305Z,8.00
2019-01-17T12:28:44.265Z,8.07
2019-01-17T12:31:13.244Z,12.87
2019-01-17T12:33:42.136Z,14.20
2019-01-17T12:36:10.995Z,17.07
2019-01-17T12:38:39.964Z,14.20
2019-01-17T12:41:08.933Z,11.00
2019-01-17T12:43:37.880Z,9.90
2019-01-17T12:46:06.889Z,10.37
2019-01-17T12:48:35.878Z,10.53
2019-01-17T12:51:04.861Z,12.03
2019-01-17T12:53:33.794Z,12.13
2019-01-17T12:56:03.197Z,13.53
2019-01-17T12:58:32.453Z,12.43
2019-01-17T13:01:01.537Z,7.60
2019-01-17T13:03:30.500Z,4.80
2019-01-17T13:05:59.360Z,3.90
2019-01-17T13:08:28.223Z,2.47
2019-01-17T13:10:57.129Z,9.57
2019-01-17T13:13:25.985Z,1.63
2019-01-17T13:15:54.891Z,4.80
2019-01-17T13:18:23.757Z,7.53
2019-01-17T13:20:52.683Z,5.93
2019-01-17T13:23:21.620Z,6.83
2019-01-17T13:25:50.636Z,12.83
2019-01-17T13:28:19.747Z,6.10
2019-01-17T13:30:48.743Z,6.13
2019-01-17T13:33:17.630Z,6.10
2019-01-17T13:35:46.609Z,6.23
2019-01-17T13:38:15.615Z,6.10
2019-01-17T13:40:44.494Z,8.63
2019-01-17T13:43:13.340Z,6.60
2019-01-17T13:45:42.316Z,5.10
2019-01-17T13:48:11.305Z,4.93
2019-01-17T13:50:40.265Z,5.43
2019-01-17T13:53:09.312Z,4.33
2019-01-17T13:55:38.330Z,8.80
2019-01-17T13:58:07.278Z,4.33
2019-01-17T14:00:36.194Z,3.13
2019-01-17T14:03:05.071Z,3.37
2019-01-17T14:05:34.003Z,5.33
2019-01-17T14:08:02.954Z,4.00
2019-01-17T14:10:31.920Z,7.83
2019-01-17T14:13:00.892Z,16.93
2019-01-17T14:15:30.241Z,7.20
2019-01-17T14:17:59.187Z,5.47
2019-01-17T14:20:28.207Z,4.87
2019-01-17T14:22:57.205Z,5.50
2019-01-17T14:25:26.157Z,4.63
2019-01-17T14:27:55.208Z,6.30
2019-01-17T14:30:26.877Z,5.90
2019-01-17T14:32:55.782Z,4.37
2019-01-17T14:35:24.754Z,8.47
2019-01-17T14:37:53.804Z,5.00
2019-01-17T14:40:22.753Z,5.93
2019-01-17T14:42:51.714Z,10.10
2019-01-17T14:45:20.788Z,5.63
2019-01-17T14:47:49.782Z,4.80
2019-01-17T14:50:23.770Z,4.47
2019-01-17T14:52:52.653Z,7.87
2019-01-17T14:55:21.549Z,7.93
2019-01-17T14:57:50.436Z,3.83
2019-01-17T15:00:21.284Z,6.27
2019-01-17T15:02:50.267Z,7.70
2019-01-17T15:05:19.233Z,5.00
2019-01-17T15:07:48.144Z,5.03
2019-01-17T15:10:35.488Z,7.50
2019-01-17T15:13:04.641Z,5.63
2019-01-17T15:15:33.533Z,6.70
2019-01-17T15:18:02.427Z,5.07
2019-01-17T15:20:31.418Z,4.87
2019-01-17T15:23:00.399Z,6.17
2019-01-17T15:25:29.351Z,7.73
2019-01-17T15:27:58.249Z,4.93
2019-01-17T15:30:27.331Z,5.37
2019-01-17T15:32:56.294Z,6.70
2019-01-17T15:35:25.300Z,5.73
2019-01-17T15:37:54.239Z,7.07
2019-01-17T15:40:25.325Z,6.53
2019-01-17T15:42:54.309Z,11.40
2019-01-17T15:45:23.285Z,6.30
2019-01-17T15:47:52.274Z,11.33
2019-01-17T15:50:21.407Z,5.27
2019-01-17T15:52:50.411Z,7.67
2019-01-17T15:55:19.512Z,5.07
2019-01-17T15:57:48.450Z,3.87
2019-01-17T16:00:22.616Z,5.47
2019-01-17T16:02:51.694Z,7.33
2019-01-17T16:05:20.909Z,7.77
2019-01-17T16:07:49.781Z,7.70
2019-01-17T16:10:18.795Z,7.13
2019-01-17T16:12:47.802Z,7.57
2019-01-17T16:15:18.712Z,6.10
2019-01-17T16:17:47.703Z,7.53
2019-01-17T16:20:16.772Z,9.27
2019-01-17T16:22:45.867Z,5.43
2019-01-17T16:25:15.166Z,10.83
2019-01-17T16:27:44.093Z,8.03
2019-01-17T16:30:27.117Z,6.90
2019-01-17T16:32:56.097Z,7.67
2019-01-17T16:35:24.976Z,5.73
2019-01-17T16:37:53.937Z,8.57
2019-01-17T16:40:22.924Z,6.83
2019-01-17T16:42:51.879Z,4.67
2019-01-17T16:46:16.896Z,6.23
2019-01-17T16:48:45.993Z,5.20
2019-01-17T16:51:15.105Z,7.30
2019-01-17T16:54:25.483Z,5.07
2019-01-17T16:56:54.429Z,4.13
2019-01-17T16:59:23.449Z,2.13
2019-01-17T17:01:52.422Z,3.10
2019-01-17T17:04:21.404Z,3.10
2019-01-17T17:06:50.546Z,4.37
2019-01-17T17:09:20.027Z,6.13
2019-01-17T17:11:49.656Z,7.53
2019-01-17T17:14:19.092Z,5.27
2019-01-17T17:16:48.410Z,4.60
2019-01-17T17:19:17.655Z,5.00
2019-01-17T17:21:47.300Z,7.80
2019-01-17T17:24:16.623Z,7.27
2019-01-17T17:26:45.831Z,7.40
2019-01-17T17:29:14.815Z,5.13
2019-01-17T17:31:44.054Z,4.53
2019-01-17T17:34:13.106Z,7.07
2019-01-17T17:37:14.830Z,6.10
2019-01-17T17:39:43.810Z,9.73
2019-01-17T17:42:30.980Z,9.00
2019-01-17T17:45:00.225Z,13.80
2019-01-17T17:47:29.164Z,13.10
2019-01-17T17:49:58.681Z,7.47
2019-01-17T17:52:27.693Z,4.27
2019-01-17T17:54:56.722Z,4.30
2019-01-17T17:57:25.708Z,3.53
2019-01-17T17:59:54.719Z,3.67
2019-01-17T18:02:29.904Z,2.17
2019-01-17T18:04:59.303Z,2.53
2019-01-17T18:07:28.256Z,7.03
2019-01-17T18:09:57.312Z,6.17
2019-01-17T18:12:26.403Z,3.53
2019-01-17T18:14:55.497Z,3.90
2019-01-17T18:17:24.622Z,2.80
2019-01-17T18:19:54.178Z,2.23
2019-01-17T18:22:23.728Z,3.00
2019-01-17T18:24:52.743Z,3.97
2019-01-17T18:27:21.739Z,5.60
2019-01-17T18:29:50.637Z,2.40
2019-01-17T18:32:19.680Z,7.47
2019-01-17T18:34:48.745Z,1.90
2019-01-17T18:37:17.690Z,2.07
2019-01-17T18:39:46.690Z,2.13
2019-01-17T18:42:15.715Z,2.63
2019-01-17T18:44:44.697Z,1.97
2019-01-17T18:47:13.724Z,2.33
2019-01-17T18:49:42.713Z,2.73
2019-01-17T18:52:11.635Z,3.57
2019-01-17T18:54:40.694Z,3.10
2019-01-17T18:57:09.698Z,5.43
2019-01-17T18:59:38.676Z,3.90
2019-01-17T19:02:07.668Z,4.57
2019-01-17T19:04:36.678Z,7.03
2019-01-17T19:07:05.628Z,7.87
2019-01-17T19:09:34.642Z,5.43
2019-01-17T19:12:03.647Z,6.37
2019-01-17T19:14:32.757Z,5.73
2019-01-17T19:17:01.613Z,4.47
2019-01-17T19:19:30.517Z,2.67
2019-01-17T19:21:59.362Z,2.33
2019-01-17T19:24:28.242Z,3.40
2019-01-17T19:26:57.105Z,3.63
2019-01-17T19:29:25.948Z,2.70
2019-01-17T19:31:54.944Z,3.40
2019-01-17T19:34:23.824Z,1.23
2019-01-17T19:36:52.678Z,2.63
2019-01-17T19:39:21.568Z,4.17
2019-01-17T19:41:50.505Z,2.70
2019-01-17T19:44:19.397Z,3.77
2019-01-17T19:46:48.349Z,3.03
2019-01-17T19:49:17.339Z,3.43
2019-01-17T19:51:46.257Z,5.33
2019-01-17T19:54:15.122Z,5.60
2019-01-17T19:56:44.104Z,5.63
2019-01-17T19:59:12.990Z,8.30
2019-01-17T20:01:41.964Z,6.97
2019-01-17T20:04:31.800Z,4.90
2019-01-17T20:07:01.639Z,5.97
2019-01-17T20:09:30.653Z,8.67
2019-01-17T20:11:59.586Z,8.07
2019-01-17T20:14:28.477Z,10.73
2019-01-17T20:16:57.485Z,8.93
2019-01-17T20:19:26.517Z,9.87
2019-01-17T20:21:55.456Z,5.93
2019-01-17T20:24:24.465Z,8.27
2019-01-17T20:26:53.427Z,9.67
2019-01-17T20:29:22.379Z,5.93
2019-01-17T20:31:51.379Z,2.53
2019-01-17T20:34:20.326Z,2.53
2019-01-17T20:36:49.322Z,3.00
2019-01-17T20:39:18.284Z,3.87
2019-01-17T20:41:47.182Z,3.00
2019-01-17T20:44:16.185Z,4.13
2019-01-17T20:46:45.195Z,2.43
2019-01-17T20:49:14.103Z,3.70
2019-01-17T20:51:43.122Z,2.40
2019-01-17T20:54:12.348Z,2.60
2019-01-17T20:56:41.489Z,2.07
2019-01-17T20:59:10.540Z,4.40
2019-01-17T21:02:08.427Z,2.10
2019-01-17T21:04:37.306Z,2.33
2019-01-17T21:07:06.375Z,3.03
2019-01-17T21:09:35.263Z,2.77
2019-01-17T21:12:04.385Z,2.47
2019-01-17T21:14:33.388Z,2.63
2019-01-17T21:17:02.366Z,3.73
2019-01-17T21:19:31.451Z,4.87
2019-01-17T21:22:00.339Z,4.40
2019-01-17T21:24:29.297Z,2.50
2019-01-17T21:26:58.357Z,4.97
2019-01-17T21:29:27.328Z,2.33
2019-01-17T21:31:56.222Z,3.23
2019-01-17T21:34:25.243Z,10.10
2019-01-17T21:36:54.205Z,4.63
2019-01-17T21:39:29.179Z,2.67
2019-01-17T21:41:58.162Z,2.67
2019-01-17T21:44:27.078Z,3.03
2019-01-17T21:47:13.934Z,3.40
2019-01-17T21:49:42.830Z,1.90
2019-01-17T21:52:11.780Z,7.83
2019-01-17T21:54:40.705Z,3.23
2019-01-17T21:57:09.614Z,1.83
2019-01-17T21:59:38.599Z,2.93
2019-01-17T22:02:07.466Z,3.93
2019-01-17T22:04:36.381Z,4.20
2019-01-17T22:07:05.243Z,2.57
2019-01-17T22:09:34.207Z,2.53
2019-01-17T22:15:30.743Z,2.20
2019-01-17T22:17:59.712Z,1.63
2019-01-17T22:20:34.453Z,2.00
2019-01-17T22:23:03.360Z,2.07
2019-01-17T22:25:32.279Z,1.80
2019-01-17T22:28:01.186Z,2.97
2019-01-17T22:30:30.084Z,2.17
2019-01-17T22:32:58.966Z,3.07
2019-01-17T22:35:28.031Z,2.70
2019-01-17T22:37:56.876Z,4.97
2019-01-17T22:40:25.735Z,4.10
2019-01-17T22:42:54.619Z,5.33
2019-01-17T22:45:25.968Z,1.37
2019-01-17T22:47:54.957Z,3.53
2019-01-17T22:50:23.835Z,3.93
2019-01-17T22:52:52.840Z,5.23
2019-01-17T22:55:21.811Z,3.53
2019-01-17T22:57:50.702Z,3.43
2019-01-17T23:00:51.306Z,1.97
2019-01-17T23:03:25.841Z,1.97
2019-01-17T23:05:54.734Z,6.10
2019-01-17T23:08:23.681Z,4.20
2019-01-17T23:10:52.577Z,3.23
2019-01-17T23:13:21.562Z,4.27
2019-01-17T23:15:50.373Z,3.37
2019-01-17T23:18:19.249Z,3.47
2019-01-17T23:20:48.238Z,4.03
2019-01-17T23:23:17.198Z,2.83
2019-01-17T23:25:46.062Z,6.30
2019-01-17T23:28:14.927Z,4.13
2019-01-17T23:30:43.826Z,4.20
2019-01-17T23:33:12.948Z,3.93
2019-01-17T23:38:28.218Z,2.57
2019-01-17T23:40:57.086Z,1.97
2019-01-17T23:43:26.027Z,4.93
2019-01-17T23:45:54.982Z,4.30
2019-01-17T23:48:23.832Z,2.80
2019-01-17T23:50:52.952Z,5.40
2019-01-17T23:53:21.819Z,3.27
2019-01-17T23:55:50.695Z,3.53
2019-01-17T23:58:19.563Z,3.07
